createdAt,value
2023-04-20T00:01:02.739Z,51.25
2023-04-20T00:03:48.958Z,51.16
2023-04-20T00:06:35.094Z,51.23
2023-04-20T00:09:20.778Z,51.05
2023-04-20T00:12:06.796Z,50.88
2023-04-20T00:14:53.531Z,51.02
2023-04-20T00:17:39.757Z,51.37
2023-04-20T00:20:25.660Z,51.19
2023-04-20T00:23:11.709Z,51.31
2023-04-20T00:25:57.632Z,51.20
2023-04-20T00:28:43.902Z,51.50
2023-04-20T00:31:31.156Z,51.27
2023-04-20T00:34:18.455Z,51.33
2023-04-20T00:37:04.418Z,51.27
2023-04-20T00:39:50.093Z,51.40
2023-04-20T00:42:36.101Z,51.56
2023-04-20T00:45:22.329Z,51.45
2023-04-20T00:48:08.167Z,51.60
2023-04-20T00:50:54.267Z,51.36
2023-04-20T00:53:41.208Z,51.82
2023-04-20T00:56:27.080Z,51.42
2023-04-20T00:59:12.726Z,51.57
2023-04-20T01:01:59.063Z,51.67
2023-04-20T01:04:47.183Z,52.08
2023-04-20T01:07:33.289Z,51.69
2023-04-20T01:10:20.801Z,51.73
2023-04-20T01:13:08.243Z,51.73
2023-04-20T01:15:54.465Z,51.70
2023-04-20T01:18:51.163Z,51.66
2023-04-20T01:21:37.284Z,51.67
2023-04-20T01:24:22.870Z,51.86
2023-04-20T01:27:11.694Z,51.76
2023-04-20T01:29:57.451Z,51.86
2023-04-20T01:32:43.493Z,51.91
2023-04-20T01:35:29.399Z,51.95
2023-04-20T01:38:22.537Z,51.92
2023-04-20T01:41:09.796Z,52.11
2023-04-20T01:43:55.916Z,52.01
2023-04-20T01:46:41.795Z,52.28
2023-04-20T01:49:27.733Z,52.10
2023-04-20T01:52:13.732Z,52.15
2023-04-20T01:55:00.497Z,52.09
2023-04-20T01:57:46.217Z,52.11
2023-04-20T02:00:32.027Z,52.11
2023-04-20T02:03:18.769Z,52.20
2023-04-20T02:06:06.256Z,52.00
2023-04-20T02:08:52.240Z,52.23
2023-04-20T02:11:38.156Z,52.37
2023-04-20T02:14:24.922Z,52.32
2023-04-20T02:17:10.871Z,52.38
2023-04-20T02:19:57.076Z,52.58
2023-04-20T02:22:42.850Z,52.58
2023-04-20T02:25:28.860Z,52.73
2023-04-20T02:28:15.101Z,52.60
2023-04-20T02:31:01.134Z,52.57
2023-04-20T02:33:48.096Z,52.52
2023-04-20T02:36:33.696Z,52.79
2023-04-20T02:39:19.902Z,52.88
2023-04-20T02:42:07.351Z,52.55
2023-04-20T02:44:54.027Z,52.76
2023-04-20T02:47:39.846Z,52.86
2023-04-20T02:50:26.672Z,52.87
2023-04-20T02:53:35.213Z,52.95
2023-04-20T02:56:31.400Z,52.87
2023-04-20T02:59:21.742Z,52.66
2023-04-20T03:02:22.194Z,53.01
2023-04-20T03:05:08.521Z,52.73
2023-04-20T03:08:01.195Z,52.83
2023-04-20T03:10:47.179Z,52.83
2023-04-20T03:13:37.068Z,53.18
2023-04-20T03:16:24.634Z,53.01
2023-04-20T03:19:13.803Z,52.82
2023-04-20T03:21:59.468Z,52.80
2023-04-20T03:24:47.773Z,53.00
2023-04-20T03:28:01.348Z,53.13
2023-04-20T03:30:53.551Z,53.21
2023-04-20T03:33:42.947Z,53.19
2023-04-20T03:36:28.853Z,53.35
2023-04-20T03:39:16.499Z,53.53
2023-04-20T03:42:02.465Z,53.01
2023-04-20T03:44:48.392Z,53.35
2023-04-20T03:47:34.228Z,53.40
2023-04-20T03:50:20.445Z,53.57
2023-04-20T03:53:07.998Z,53.41
2023-04-20T03:55:56.321Z,53.45
2023-04-20T03:58:42.439Z,53.42
2023-04-20T04:01:33.296Z,53.65
2023-04-20T04:04:19.582Z,53.88
2023-04-20T04:07:05.514Z,53.80
2023-04-20T04:09:51.588Z,53.70
2023-04-20T04:12:38.718Z,53.47
2023-04-20T04:15:25.075Z,53.29
2023-04-20T04:18:18.029Z,53.78
2023-04-20T04:21:04.379Z,53.91
2023-04-20T04:23:50.837Z,53.91
2023-04-20T04:26:48.745Z,53.59
2023-04-20T04:29:36.033Z,53.81
2023-04-20T04:32:24.992Z,53.84
2023-04-20T04:35:11.439Z,53.66
2023-04-20T04:37:57.887Z,54.05
2023-04-20T04:40:45.865Z,53.83
2023-04-20T04:43:33.602Z,54.06
2023-04-20T04:46:30.112Z,54.02
2023-04-20T04:49:17.246Z,53.58
2023-04-20T04:52:03.535Z,53.84
2023-04-20T04:54:49.509Z,53.77
2023-04-20T04:57:36.291Z,53.99
2023-04-20T05:00:22.887Z,54.00
2023-04-20T05:03:08.781Z,53.95
2023-04-20T05:05:55.050Z,54.12
2023-04-20T05:08:40.941Z,54.09
2023-04-20T05:11:26.955Z,53.63
2023-04-20T05:14:12.661Z,53.71
2023-04-20T05:16:59.088Z,53.95
2023-04-20T05:19:45.003Z,53.95
2023-04-20T05:22:30.781Z,53.95
2023-04-20T05:25:16.518Z,53.95
2023-04-20T05:28:02.350Z,53.91
2023-04-20T05:30:48.258Z,53.86
2023-04-20T05:33:33.948Z,53.95
2023-04-20T05:36:20.293Z,53.99
2023-04-20T05:39:06.231Z,53.98
2023-04-20T05:41:52.357Z,53.93
2023-04-20T05:44:39.666Z,54.04
2023-04-20T05:47:27.510Z,53.88
2023-04-20T05:50:13.434Z,53.88
2023-04-20T05:52:59.560Z,53.98
2023-04-20T05:55:45.641Z,53.90
2023-04-20T05:58:33.313Z,54.00
2023-04-20T06:01:19.333Z,53.96
2023-04-20T06:04:05.602Z,53.68
2023-04-20T06:06:52.122Z,53.84
2023-04-20T06:09:37.797Z,53.96
2023-04-20T06:12:25.161Z,53.59
2023-04-20T06:15:12.251Z,53.66
2023-04-20T06:17:58.109Z,53.54
2023-04-20T06:20:44.296Z,53.57
2023-04-20T06:23:30.175Z,53.56
2023-04-20T06:26:16.265Z,53.52
2023-04-20T06:29:02.060Z,53.43
2023-04-20T06:31:48.045Z,53.34
2023-04-20T06:34:33.721Z,53.37
2023-04-20T06:37:19.616Z,53.13
2023-04-20T06:40:09.554Z,53.27
2023-04-20T06:42:58.616Z,53.02
2023-04-20T06:45:44.274Z,52.46
2023-04-20T06:48:32.760Z,52.99
2023-04-20T06:51:19.058Z,52.59
2023-04-20T06:54:04.859Z,52.22
2023-04-20T06:56:50.721Z,52.34
2023-04-20T06:59:36.506Z,52.06
2023-04-20T07:02:22.532Z,51.94
2023-04-20T07:05:08.514Z,52.17
2023-04-20T07:07:54.888Z,52.26
2023-04-20T07:10:40.693Z,51.92
2023-04-20T07:13:26.485Z,51.76
2023-04-20T07:16:12.853Z,52.02
2023-04-20T07:18:58.519Z,51.37
2023-04-20T07:21:44.380Z,51.36
2023-04-20T07:24:30.718Z,50.79
2023-04-20T07:27:16.511Z,51.17
2023-04-20T07:30:02.759Z,51.07
2023-04-20T07:32:49.188Z,50.80
2023-04-20T07:35:35.270Z,50.94
2023-04-20T07:38:21.102Z,50.25
2023-04-20T07:41:11.732Z,50.32
2023-04-20T07:43:57.709Z,50.44
2023-04-20T07:46:44.477Z,50.17
2023-04-20T07:49:30.501Z,50.04
2023-04-20T07:52:17.455Z,49.92
2023-04-20T07:55:03.958Z,49.27
2023-04-20T07:57:50.417Z,49.42
2023-04-20T08:00:36.427Z,49.33
2023-04-20T08:03:22.271Z,49.47
2023-04-20T08:06:09.883Z,49.91
2023-04-20T08:08:55.959Z,49.52
2023-04-20T08:11:41.936Z,49.48
2023-04-20T08:14:28.283Z,49.17
2023-04-20T08:17:14.522Z,49.26
2023-04-20T08:20:00.273Z,49.24
2023-04-20T08:22:46.189Z,49.32
2023-04-20T08:25:32.657Z,49.14
2023-04-20T08:28:32.404Z,49.17
2023-04-20T08:31:19.604Z,48.60
2023-04-20T08:34:05.274Z,48.46
2023-04-20T08:36:51.408Z,48.03
2023-04-20T08:39:38.929Z,47.86
2023-04-20T08:42:25.047Z,47.61
2023-04-20T08:45:11.842Z,47.95
2023-04-20T08:48:18.084Z,46.63
2023-04-20T08:51:05.063Z,47.72
2023-04-20T08:53:51.414Z,47.27
2023-04-20T08:56:43.045Z,46.79
2023-04-20T08:59:29.609Z,47.15
2023-04-20T09:02:15.993Z,46.79
2023-04-20T09:05:04.487Z,46.80
2023-04-20T09:07:58.845Z,47.01
2023-04-20T09:10:44.991Z,42.27
2023-04-20T09:13:30.579Z,46.64
2023-04-20T09:16:16.704Z,46.17
2023-04-20T09:19:02.797Z,46.39
2023-04-20T09:21:52.793Z,46.10
2023-04-20T09:24:40.112Z,46.15
2023-04-20T09:27:26.557Z,45.61
2023-04-20T09:30:12.843Z,45.71
2023-04-20T09:33:03.300Z,45.52
2023-04-20T09:35:49.231Z,45.71
2023-04-20T09:38:35.129Z,45.55
2023-04-20T09:41:21.242Z,45.16
2023-04-20T09:44:08.523Z,44.91
2023-04-20T09:46:54.225Z,45.34
2023-04-20T09:49:40.095Z,45.31
2023-04-20T09:52:26.687Z,44.95
2023-04-20T09:55:12.821Z,45.34
2023-04-20T09:58:01.041Z,45.22
2023-04-20T10:00:47.198Z,45.45
2023-04-20T10:03:35.150Z,44.96
2023-04-20T10:06:27.815Z,42.77
2023-04-20T10:09:25.978Z,44.60
2023-04-20T10:12:13.920Z,44.68
2023-04-20T10:15:01.490Z,44.49
2023-04-20T10:17:48.508Z,44.27
2023-04-20T10:20:34.486Z,43.41
2023-04-20T10:23:20.569Z,43.44
2023-04-20T10:26:06.759Z,43.91
2023-04-20T10:28:52.406Z,43.83
2023-04-20T10:31:39.393Z,43.40
2023-04-20T10:34:32.495Z,42.93
2023-04-20T10:37:18.645Z,43.73
2023-04-20T10:40:07.412Z,43.39
2023-04-20T10:42:54.154Z,42.78
2023-04-20T10:45:48.518Z,39.57
2023-04-20T10:48:34.856Z,42.64
2023-04-20T10:51:21.445Z,42.60
2023-04-20T10:54:08.713Z,42.47
2023-04-20T10:56:54.701Z,42.28
2023-04-20T10:59:42.129Z,42.19
2023-04-20T11:02:28.364Z,41.88
2023-04-20T11:05:17.969Z,41.11
2023-04-20T11:08:04.226Z,40.82
2023-04-20T11:10:49.881Z,41.20
2023-04-20T11:13:35.749Z,40.72
2023-04-20T11:16:22.365Z,40.68
2023-04-20T11:19:08.638Z,40.76
2023-04-20T11:21:54.776Z,40.38
2023-04-20T11:24:41.314Z,40.00
2023-04-20T11:27:27.410Z,39.84
2023-04-20T11:30:14.256Z,39.71
2023-04-20T11:33:00.646Z,39.35
2023-04-20T11:35:46.470Z,39.29
2023-04-20T11:38:34.084Z,39.56
2023-04-20T11:41:20.330Z,39.16
2023-04-20T11:44:07.030Z,38.38
2023-04-20T11:46:54.401Z,38.16
2023-04-20T11:49:40.045Z,38.12
2023-04-20T11:52:25.962Z,38.09
2023-04-20T11:55:12.660Z,37.61
2023-04-20T11:57:58.602Z,38.04
2023-04-20T12:00:44.460Z,37.51
2023-04-20T12:03:30.895Z,37.30
2023-04-20T12:06:17.120Z,37.17
2023-04-20T12:09:03.073Z,37.10
2023-04-20T12:11:48.974Z,37.04
2023-04-20T12:14:35.070Z,37.32
2023-04-20T12:17:21.140Z,37.33
2023-04-20T12:20:08.725Z,38.12
2023-04-20T12:22:56.038Z,39.03
2023-04-20T12:25:43.415Z,39.03
2023-04-20T12:28:29.471Z,38.24
2023-04-20T12:31:15.521Z,37.60
2023-04-20T12:34:03.081Z,37.54
2023-04-20T12:36:48.957Z,36.92
2023-04-20T12:39:34.836Z,36.14
2023-04-20T12:42:20.959Z,35.29
2023-04-20T12:45:07.410Z,34.88
2023-04-20T12:47:55.762Z,34.43
2023-04-20T12:50:42.806Z,34.93
2023-04-20T12:53:28.554Z,34.54
2023-04-20T12:56:15.266Z,34.29
2023-04-20T12:59:01.086Z,34.20
2023-04-20T13:01:47.296Z,34.04
2023-04-20T13:04:33.262Z,34.52
2023-04-20T13:07:19.365Z,34.60
2023-04-20T13:10:06.335Z,33.89
2023-04-20T13:12:52.856Z,34.08
2023-04-20T13:15:39.660Z,33.27
2023-04-20T13:18:25.949Z,33.32
2023-04-20T13:21:11.861Z,32.63
2023-04-20T13:23:58.017Z,32.72
2023-04-20T13:26:43.845Z,32.81
2023-04-20T13:29:29.672Z,32.68
2023-04-20T13:32:15.426Z,32.60
2023-04-20T13:35:02.127Z,32.17
2023-04-20T13:37:48.203Z,33.03
2023-04-20T13:40:34.319Z,32.74
2023-04-20T13:43:21.678Z,32.05
2023-04-20T13:46:07.985Z,30.85
2023-04-20T13:48:53.619Z,30.20
2023-04-20T13:51:40.125Z,30.17
2023-04-20T13:54:26.273Z,29.30
2023-04-20T13:57:11.961Z,28.92
2023-04-20T13:59:59.120Z,28.62
2023-04-20T14:02:45.323Z,29.10
2023-04-20T14:05:31.433Z,28.64
2023-04-20T14:08:17.322Z,28.78
2023-04-20T14:11:03.292Z,29.01
2023-04-20T14:13:49.248Z,28.97
2023-04-20T14:16:57.020Z,26.18
2023-04-20T14:19:43.130Z,29.60
2023-04-20T14:22:34.370Z,29.90
2023-04-20T14:25:22.139Z,30.08
2023-04-20T14:28:07.860Z,30.12
2023-04-20T14:30:53.860Z,30.00
2023-04-20T14:33:41.562Z,30.08
2023-04-20T14:36:28.124Z,30.31
2023-04-20T14:39:14.071Z,30.46
2023-04-20T14:42:00.161Z,30.71
2023-04-20T14:44:48.270Z,30.98
2023-04-20T14:47:34.301Z,31.20
2023-04-20T14:50:20.180Z,31.19
2023-04-20T14:53:05.841Z,31.52
2023-04-20T14:55:51.907Z,31.59
2023-04-20T14:58:38.186Z,31.97
2023-04-20T15:01:24.167Z,32.31
2023-04-20T15:04:10.224Z,32.47
2023-04-20T15:06:56.336Z,32.49
2023-04-20T15:09:42.210Z,32.77
2023-04-20T15:12:27.910Z,33.73
2023-04-20T15:15:13.818Z,34.00
2023-04-20T15:17:59.770Z,33.48
2023-04-20T15:20:46.181Z,32.60
2023-04-20T15:23:31.995Z,32.06
2023-04-20T15:26:18.132Z,31.20
2023-04-20T15:29:04.035Z,30.79
2023-04-20T15:31:49.980Z,31.15
2023-04-20T15:34:36.096Z,31.01
2023-04-20T15:37:22.228Z,31.02
2023-04-20T15:40:08.842Z,30.55
2023-04-20T15:42:57.977Z,30.06
2023-04-20T15:45:45.096Z,29.19
2023-04-20T15:48:31.198Z,28.95
2023-04-20T15:51:17.744Z,28.57
2023-04-20T15:54:03.637Z,28.29
2023-04-20T15:56:52.413Z,27.45
2023-04-20T15:59:38.120Z,27.48
2023-04-20T16:02:24.237Z,27.79
2023-04-20T16:05:11.703Z,27.42
2023-04-20T16:07:57.937Z,27.30
2023-04-20T16:10:43.772Z,27.45
2023-04-20T16:13:29.959Z,27.15
2023-04-20T16:16:16.284Z,27.29
2023-04-20T16:19:02.574Z,27.46
2023-04-20T16:21:48.881Z,27.44
2023-04-20T16:24:34.851Z,27.82
2023-04-20T16:27:20.579Z,27.96
2023-04-20T16:30:07.017Z,28.04
2023-04-20T16:32:53.300Z,28.19
2023-04-20T16:35:40.650Z,28.13
2023-04-20T16:38:26.778Z,28.42
2023-04-20T16:41:12.532Z,28.56
2023-04-20T16:44:04.227Z,28.38
2023-04-20T16:46:51.167Z,28.85
2023-04-20T16:49:37.118Z,28.91
2023-04-20T16:52:22.904Z,29.03
2023-04-20T16:55:09.113Z,29.25
2023-04-20T16:58:00.340Z,29.32
2023-04-20T17:00:45.966Z,29.44
2023-04-20T17:03:32.237Z,29.77
2023-04-20T17:06:18.403Z,29.81
2023-04-20T17:09:07.140Z,30.03
2023-04-20T17:11:53.375Z,30.17
2023-04-20T17:14:39.443Z,30.40
2023-04-20T17:17:26.248Z,30.58
2023-04-20T17:20:12.699Z,30.84
2023-04-20T17:22:58.709Z,30.86
2023-04-20T17:25:46.078Z,31.00
2023-04-20T17:28:32.104Z,30.87
2023-04-20T17:31:17.981Z,31.19
2023-04-20T17:34:03.751Z,31.34
2023-04-20T17:36:49.860Z,31.38
2023-04-20T17:39:35.906Z,31.58
2023-04-20T17:42:23.001Z,31.66
2023-04-20T17:45:09.401Z,31.74
2023-04-20T17:47:55.190Z,31.77
2023-04-20T17:50:41.129Z,32.11
2023-04-20T17:53:27.204Z,32.16
2023-04-20T17:56:13.199Z,32.33
2023-04-20T17:58:59.074Z,32.09
2023-04-20T18:01:44.763Z,32.55
2023-04-20T18:04:30.873Z,32.55
2023-04-20T18:07:18.475Z,32.44
2023-04-20T18:10:05.003Z,32.63
2023-04-20T18:12:51.370Z,32.74
2023-04-20T18:15:37.493Z,32.93
2023-04-20T18:18:23.305Z,33.07
2023-04-20T18:21:09.906Z,33.26
2023-04-20T18:23:55.915Z,33.28
2023-04-20T18:26:41.994Z,33.55
2023-04-20T18:29:29.141Z,33.72
2023-04-20T18:32:16.496Z,33.85
2023-04-20T18:35:03.337Z,33.38
2023-04-20T18:37:49.581Z,33.92
2023-04-20T18:40:35.926Z,33.84
2023-04-20T18:43:33.521Z,35.89
2023-04-20T18:46:19.615Z,34.09
2023-04-20T18:49:07.094Z,34.17
2023-04-20T18:51:58.313Z,34.70
2023-04-20T18:54:44.393Z,34.45
2023-04-20T18:57:30.112Z,34.58
2023-04-20T19:00:16.512Z,34.70
2023-04-20T19:03:02.797Z,35.08
2023-04-20T19:06:00.735Z,35.41
2023-04-20T19:08:57.229Z,35.28
2023-04-20T19:11:42.949Z,35.13
2023-04-20T19:14:30.958Z,35.56
2023-04-20T19:17:17.479Z,35.48
2023-04-20T19:20:04.388Z,35.54
2023-04-20T19:22:50.304Z,35.75
2023-04-20T19:25:38.092Z,35.50
2023-04-20T19:28:24.411Z,35.78
2023-04-20T19:31:11.092Z,35.82
2023-04-20T19:33:57.308Z,35.93
2023-04-20T19:36:43.368Z,35.85
2023-04-20T19:39:30.355Z,36.07
2023-04-20T19:42:19.495Z,36.04
2023-04-20T19:45:05.618Z,36.41
2023-04-20T19:47:52.040Z,36.20
2023-04-20T19:50:38.025Z,36.52
2023-04-20T19:53:25.250Z,36.95
2023-04-20T19:56:11.241Z,36.69
2023-04-20T19:58:57.130Z,36.75
2023-04-20T20:01:43.025Z,36.99
2023-04-20T20:04:29.039Z,37.11
2023-04-20T20:07:15.190Z,37.09
2023-04-20T20:10:01.617Z,37.23
2023-04-20T20:12:48.163Z,37.32
2023-04-20T20:15:33.820Z,37.51
2023-04-20T20:18:20.646Z,37.73
2023-04-20T20:21:06.814Z,37.78
2023-04-20T20:23:52.528Z,37.65
2023-04-20T20:26:38.426Z,37.93
2023-04-20T20:29:24.614Z,37.81
2023-04-20T20:32:10.803Z,38.16
2023-04-20T20:34:57.492Z,38.06
2023-04-20T20:37:45.355Z,38.16
2023-04-20T20:40:31.403Z,38.03
2023-04-20T20:43:19.043Z,38.12
2023-04-20T20:46:05.260Z,38.46
2023-04-20T20:48:51.111Z,38.35
2023-04-20T20:51:37.049Z,38.59
2023-04-20T20:54:22.888Z,38.50
2023-04-20T20:57:09.393Z,38.48
2023-04-20T20:59:55.698Z,38.71
2023-04-20T21:02:42.012Z,38.75
2023-04-20T21:05:27.961Z,38.95
2023-04-20T21:08:13.967Z,39.08
2023-04-20T21:10:59.966Z,38.92
2023-04-20T21:13:45.815Z,38.93
2023-04-20T21:16:32.448Z,38.92
2023-04-20T21:19:18.734Z,39.25
2023-04-20T21:22:04.860Z,39.19
2023-04-20T21:24:50.717Z,39.41
2023-04-20T21:27:36.739Z,39.60
2023-04-20T21:30:22.923Z,39.46
2023-04-20T21:33:08.637Z,39.43
2023-04-20T21:35:54.890Z,39.68
2023-04-20T21:38:41.497Z,39.59
2023-04-20T21:41:29.087Z,39.75
2023-04-20T21:44:14.903Z,39.87
2023-04-20T21:47:02.717Z,40.06
2023-04-20T21:49:48.444Z,40.09
2023-04-20T21:52:36.248Z,40.17
2023-04-20T21:55:22.270Z,40.40
2023-04-20T21:58:08.703Z,40.47
2023-04-20T22:00:54.887Z,40.47
2023-04-20T22:03:40.771Z,40.57
2023-04-20T22:06:26.895Z,40.63
2023-04-20T22:09:13.417Z,40.45
2023-04-20T22:12:02.099Z,40.65
2023-04-20T22:14:48.371Z,40.77
2023-04-20T22:17:34.551Z,41.18
2023-04-20T22:20:20.283Z,41.10
2023-04-20T22:23:06.191Z,41.17
2023-04-20T22:25:51.994Z,41.49
2023-04-20T22:28:37.819Z,41.61
2023-04-20T22:31:23.938Z,41.50
2023-04-20T22:34:09.616Z,41.90
2023-04-20T22:36:55.360Z,41.71
2023-04-20T22:39:41.325Z,41.82
2023-04-20T22:42:27.267Z,41.95
2023-04-20T22:45:13.457Z,41.67
2023-04-20T22:47:59.522Z,42.08
2023-04-20T22:50:45.519Z,42.28
2023-04-20T22:53:31.568Z,42.49
2023-04-20T22:56:17.209Z,42.13
2023-04-20T22:59:03.009Z,42.00
2023-04-20T23:01:49.056Z,42.24
2023-04-20T23:04:34.856Z,42.53
2023-04-20T23:07:21.263Z,42.60
2023-04-20T23:10:08.158Z,42.27
2023-04-20T23:12:55.044Z,42.66
2023-04-20T23:15:41.090Z,42.88
2023-04-20T23:18:26.934Z,42.57
2023-04-20T23:21:12.972Z,42.92
2023-04-20T23:23:58.804Z,43.06
2023-04-20T23:26:44.680Z,43.10
2023-04-20T23:29:30.785Z,43.01
2023-04-20T23:32:16.714Z,43.28
2023-04-20T23:35:02.385Z,42.95
2023-04-20T23:37:48.222Z,43.20
2023-04-20T23:40:33.915Z,43.14
2023-04-20T23:43:19.621Z,43.52
2023-04-20T23:46:06.546Z,43.46
2023-04-20T23:48:52.304Z,43.31
2023-04-20T23:51:37.944Z,43.84
2023-04-20T23:54:23.772Z,43.57
2023-04-20T23:57:10.544Z,43.34
2023-04-20T23:59:56.433Z,43.35
